Time;durP1;ratioP1;P1;durP2;ratioP2;P2;SDS_P1;SDS_P2;PMS_P1;PMS_P2;Temp;Humidity;BMP_temperature;BMP_pressure;BME280_temperature;BME280_humidity;BME280_pressure;Samples;Min_cycle;Max_cycle;Signal;HPM_P1;HPM_P2
2022/07/27 00:01:08;;;;;;;2.95;1.20;;;13.70;99.90;;;;;;5151749;27;20416;-79
2022/07/27 00:03:34;;;;;;;2.90;1.30;;;13.70;99.90;;;;;;5154663;27;20088;-79
2022/07/27 00:06:00;;;;;;;7.13;1.35;;;13.70;99.90;;;;;;5135702;27;20107;-79
2022/07/27 00:08:26;;;;;;;3.42;1.50;;;13.70;99.90;;;;;;5145974;27;20537;-79
2022/07/27 00:10:52;;;;;;;4.07;1.40;;;13.70;99.90;;;;;;5127745;27;20125;-79
2022/07/27 00:13:18;;;;;;;3.40;1.25;;;13.70;99.90;;;;;;5153882;27;20050;-79
2022/07/27 00:15:44;;;;;;;4.20;1.20;;;13.80;99.90;;;;;;5135885;27;20497;-79
2022/07/27 00:18:10;;;;;;;5.55;1.27;;;13.70;99.90;;;;;;5154326;27;20062;-79
2022/07/27 00:20:36;;;;;;;7.72;1.52;;;13.70;99.90;;;;;;5144266;27;20057;-79
2022/07/27 00:23:02;;;;;;;4.85;1.20;;;13.70;99.90;;;;;;5128900;28;20039;-79
2022/07/27 00:25:28;;;;;;;3.20;1.08;;;13.60;99.90;;;;;;5134698;27;20091;-79
2022/07/27 00:27:58;;;;;;;9.10;1.40;;;13.60;99.90;;;;;;5140965;27;20136;-79
2022/07/27 00:30:25;;;;;;;4.95;1.35;;;13.60;99.90;;;;;;5153743;27;20035;-79
2022/07/27 00:32:51;;;;;;;6.15;1.52;;;13.60;99.90;;;;;;5118638;27;20050;-79
2022/07/27 00:35:17;;;;;;;10.95;1.77;;;13.60;99.90;;;;;;5121154;27;20047;-79
2022/07/27 00:37:43;;;;;;;7.28;1.45;;;13.50;99.90;;;;;;5135061;27;20565;-79
2022/07/27 00:40:09;;;;;;;12.70;1.83;;;13.50;99.90;;;;;;5145177;27;20528;-79
2022/07/27 00:42:35;;;;;;;5.45;1.60;;;13.40;99.90;;;;;;5127044;27;20043;-79
2022/07/27 00:45:02;;;;;;;3.10;0.98;;;13.40;99.90;;;;;;5135611;27;20057;-79
2022/07/27 00:47:28;;;;;;;9.82;2.05;;;13.40;99.90;;;;;;5151587;27;20039;-79
2022/07/27 00:49:54;;;;;;;5.40;1.15;;;13.30;99.90;;;;;;5111506;27;20045;-79
2022/07/27 00:52:22;;;;;;;7.40;1.75;;;13.30;99.90;;;;;;5134812;27;20050;-79
2022/07/27 00:54:48;;;;;;;4.68;1.20;;;13.30;99.90;;;;;;5135459;27;20046;-79
2022/07/27 00:57:15;;;;;;;5.03;0.95;;;13.30;99.90;;;;;;5134840;27;20393;-79
2022/07/27 00:59:41;;;;;;;3.50;1.33;;;13.20;99.90;;;;;;5153565;27;20519;-79
2022/07/27 01:02:08;;;;;;;4.97;1.27;;;13.20;99.90;;;;;;5152784;27;20080;-79
2022/07/27 01:04:35;;;;;;;11.75;1.75;;;13.10;99.90;;;;;;5134282;27;20487;-79
2022/07/27 01:07:05;;;;;;;7.22;1.48;;;13.10;99.90;;;;;;5129141;27;20059;-79
2022/07/27 01:12:19;;;;;;;3.33;0.82;;;13.00;99.90;;;;;;5150578;27;20393;-79
2022/07/27 01:14:49;;;;;;;7.72;1.73;;;12.90;99.90;;;;;;5136698;27;20128;-79
2022/07/27 01:17:16;;;;;;;4.97;1.20;;;12.90;99.90;;;;;;5138192;27;20106;-79
2022/07/27 01:19:42;;;;;;;14.00;2.30;;;12.90;99.90;;;;;;5124740;27;20047;-79
2022/07/27 01:22:08;;;;;;;8.95;1.38;;;12.90;99.90;;;;;;5138217;27;20391;-79
2022/07/27 01:24:34;;;;;;;5.30;1.25;;;12.90;99.90;;;;;;5157794;27;20088;-79
2022/07/27 01:27:01;;;;;;;3.08;0.90;;;12.80;99.90;;;;;;5121973;27;20066;-79
2022/07/27 01:29:30;;;;;;;6.90;1.98;;;12.80;99.90;;;;;;5156545;27;20049;-79
2022/07/27 01:31:57;;;;;;;7.75;1.20;;;12.80;99.90;;;;;;5148341;27;20050;-79
2022/07/27 01:34:23;;;;;;;7.63;1.38;;;12.70;99.90;;;;;;5122031;27;20043;-79
2022/07/27 01:36:49;;;;;;;5.10;1.30;;;12.70;99.90;;;;;;5137298;27;20039;-79
2022/07/27 01:39:16;;;;;;;6.82;1.25;;;12.60;99.90;;;;;;5136929;27;20045;-79
2022/07/27 01:41:42;;;;;;;6.53;1.77;;;12.60;99.90;;;;;;5148610;27;20039;-79
2022/07/27 01:44:08;;;;;;;3.33;1.20;;;12.50;99.90;;;;;;5139982;27;20379;-79
2022/07/27 01:46:34;;;;;;;5.90;1.40;;;12.50;99.90;;;;;;5155434;27;20039;-79
2022/07/27 01:49:00;;;;;;;4.95;1.15;;;12.50;99.90;;;;;;5157507;27;20133;-79
2022/07/27 01:51:26;;;;;;;4.85;1.20;;;12.40;99.90;;;;;;5138779;27;20103;-79
2022/07/27 01:53:52;;;;;;;3.42;0.90;;;12.40;99.90;;;;;;5156401;27;20050;-79
2022/07/27 01:56:18;;;;;;;5.10;1.73;;;12.30;99.90;;;;;;5138357;27;20070;-79
2022/07/27 01:58:44;;;;;;;4.70;1.20;;;12.20;99.90;;;;;;5139070;27;20039;-79
2022/07/27 02:01:09;;;;;;;2.92;1.23;;;12.20;99.90;;;;;;5138270;27;20086;-79
2022/07/27 02:03:36;;;;;;;4.57;1.30;;;12.20;99.90;;;;;;5156120;27;20402;-79
2022/07/27 02:06:02;;;;;;;5.43;1.20;;;12.20;99.90;;;;;;5125491;27;20562;-79
2022/07/27 02:08:28;;;;;;;2.10;0.80;;;12.20;99.90;;;;;;5134329;27;20055;-79
2022/07/27 02:13:41;;;;;;;2.90;1.08;;;12.10;99.90;;;;;;5137472;27;20121;-79
2022/07/27 02:16:07;;;;;;;5.80;1.10;;;12.10;99.90;;;;;;5152476;27;20043;-79
2022/07/27 02:18:33;;;;;;;3.50;0.93;;;12.00;99.90;;;;;;5125805;27;20561;-79
2022/07/27 02:20:58;;;;;;;10.05;1.27;;;11.90;99.90;;;;;;5147598;27;20126;-79
2022/07/27 02:23:25;;;;;;;4.13;0.90;;;11.90;99.90;;;;;;5156532;27;20074;-79
2022/07/27 02:25:50;;;;;;;4.35;0.85;;;11.80;99.90;;;;;;5156403;27;20109;-79
2022/07/27 02:28:22;;;;;;;3.10;1.10;;;11.70;99.90;;;;;;5155185;27;20118;-79
2022/07/27 02:30:48;;;;;;;6.28;1.10;;;11.60;99.90;;;;;;5140853;27;20058;-79
2022/07/27 02:33:13;;;;;;;5.47;1.38;;;11.60;99.90;;;;;;5148315;27;20470;-79
2022/07/27 02:35:39;;;;;;;3.70;0.85;;;11.60;99.90;;;;;;5155285;27;20081;-79
2022/07/27 02:38:05;;;;;;;4.10;0.88;;;11.50;99.90;;;;;;5118306;27;20100;-79
2022/07/27 02:40:31;;;;;;;6.93;1.20;;;11.50;99.90;;;;;;5119672;27;20180;-79
2022/07/27 02:42:56;;;;;;;4.55;1.08;;;11.50;99.90;;;;;;5136925;27;20478;-79
2022/07/27 02:45:22;;;;;;;7.57;1.77;;;11.50;99.90;;;;;;5121361;27;20039;-79
2022/07/27 02:47:48;;;;;;;8.88;1.95;;;11.50;99.90;;;;;;5137800;27;20049;-79
2022/07/27 02:50:14;;;;;;;1.73;0.90;;;11.50;99.90;;;;;;5100777;27;20053;-79
2022/07/27 02:52:40;;;;;;;4.35;1.30;;;11.50;99.90;;;;;;5150995;27;20042;-79
2022/07/27 02:55:06;;;;;;;4.45;1.20;;;11.50;99.90;;;;;;5136525;27;20057;-79
2022/07/27 02:57:34;;;;;;;5.40;1.75;;;11.50;99.90;;;;;;5137213;27;20078;-79
2022/07/27 03:00:00;;;;;;;8.93;3.30;;;11.50;99.90;;;;;;5137871;27;20090;-79
2022/07/27 03:02:26;;;;;;;11.07;3.67;;;11.60;99.90;;;;;;5136415;27;20085;-79
2022/07/27 03:04:52;;;;;;;14.93;4.95;;;11.60;99.90;;;;;;5119229;27;20074;-79
2022/07/27 03:07:21;;;;;;;13.57;4.60;;;11.60;99.90;;;;;;5136611;27;20070;-79
2022/07/27 03:09:46;;;;;;;13.32;4.00;;;10.90;99.90;;;;;;5147916;27;20418;-79
2022/07/27 03:12:12;;;;;;;15.52;5.00;;;11.60;99.90;;;;;;5148250;27;20043;-79
2022/07/27 03:14:38;;;;;;;10.05;3.50;;;11.70;99.90;;;;;;5147666;27;20031;-79
2022/07/27 03:17:06;;;;;;;18.45;5.45;;;11.70;99.90;;;;;;5145604;27;20047;-79
2022/07/27 03:19:32;;;;;;;8.45;4.00;;;11.70;99.90;;;;;;5136953;27;20042;-79
2022/07/27 03:21:58;;;;;;;18.58;5.43;;;11.70;99.90;;;;;;5146115;27;20125;-79
2022/07/27 03:24:23;;;;;;;15.60;7.03;;;11.70;99.90;;;;;;5155103;27;20118;-79
2022/07/27 03:26:49;;;;;;;20.38;7.10;;;11.70;99.90;;;;;;5155327;27;20039;-79
2022/07/27 03:29:15;;;;;;;19.85;6.95;;;11.70;99.90;;;;;;5132493;27;20038;-79
2022/07/27 03:31:40;;;;;;;18.38;6.55;;;11.80;99.90;;;;;;5120330;27;20505;-79
2022/07/27 03:34:06;;;;;;;25.85;8.25;;;11.80;99.90;;;;;;5124099;27;20516;-79
2022/07/27 03:36:32;;;;;;;11.80;5.15;;;11.80;99.90;;;;;;5140051;27;20118;-79
2022/07/27 03:38:57;;;;;;;16.08;7.10;;;11.90;99.90;;;;;;5154081;27;20498;-80
2022/07/27 03:41:23;;;;;;;13.25;5.10;;;11.90;99.90;;;;;;5122434;27;20184;-79
2022/07/27 03:43:49;;;;;;;15.38;5.78;;;11.90;99.90;;;;;;5132635;27;20054;-79
2022/07/27 03:46:15;;;;;;;13.38;5.07;;;11.90;99.90;;;;;;5154476;27;20058;-79
2022/07/27 03:48:40;;;;;;;12.35;5.35;;;12.00;99.90;;;;;;5139137;27;20479;-79
2022/07/27 03:51:06;;;;;;;10.38;5.03;;;12.00;99.90;;;;;;5134568;27;20115;-79
2022/07/27 03:53:32;;;;;;;9.65;4.28;;;12.10;99.90;;;;;;5135588;27;20043;-79
2022/07/27 03:55:58;;;;;;;11.57;3.38;;;12.10;99.90;;;;;;5146001;27;20023;-79
2022/07/27 03:58:24;;;;;;;10.25;3.15;;;12.10;99.90;;;;;;5134015;27;20394;-79
2022/07/27 04:00:50;;;;;;;10.70;3.65;;;12.20;99.90;;;;;;5125672;27;20054;-79
2022/07/27 04:03:16;;;;;;;7.90;3.88;;;12.20;99.90;;;;;;5154990;27;20057;-79
2022/07/27 04:05:42;;;;;;;15.07;5.35;;;12.20;99.90;;;;;;5130091;27;20042;-79
2022/07/27 04:08:08;;;;;;;11.40;5.15;;;12.10;99.90;;;;;;5151207;27;20585;-79
2022/07/27 04:10:34;;;;;;;12.48;3.92;;;12.20;99.90;;;;;;5148960;27;20118;-79
2022/07/27 04:13:00;;;;;;;11.98;3.67;;;12.20;99.90;;;;;;5139336;27;20122;-79
2022/07/27 04:15:26;;;;;;;6.68;2.60;;;12.20;99.90;;;;;;5151749;27;20033;-79
2022/07/27 04:17:52;;;;;;;10.80;3.40;;;12.20;99.90;;;;;;5142164;27;20046;-79
2022/07/27 04:20:18;;;;;;;10.65;3.33;;;12.20;99.90;;;;;;5135302;27;20053;-79
2022/07/27 04:22:44;;;;;;;8.48;3.45;;;12.20;99.90;;;;;;5136110;27;20050;-79
2022/07/27 04:25:10;;;;;;;9.27;3.33;;;12.20;99.90;;;;;;5151858;27;20047;-79
2022/07/27 04:27:36;;;;;;;12.02;3.60;;;12.20;99.90;;;;;;5118914;27;20049;-79
2022/07/27 04:30:03;;;;;;;9.48;3.53;;;12.30;99.90;;;;;;5154573;27;20043;-79
2022/07/27 04:32:29;;;;;;;8.15;2.60;;;12.30;99.90;;;;;;5148272;27;20128;-79
2022/07/27 04:34:55;;;;;;;7.45;2.60;;;12.30;99.90;;;;;;5151586;27;20042;-79
2022/07/27 04:37:21;;;;;;;6.88;2.40;;;12.30;99.90;;;;;;5144177;27;20389;-79
2022/07/27 04:39:46;;;;;;;8.73;2.55;;;12.30;99.90;;;;;;5153604;27;20035;-79
2022/07/27 04:42:12;;;;;;;9.60;2.83;;;12.30;99.90;;;;;;5150671;27;20483;-79
2022/07/27 04:44:38;;;;;;;7.25;2.65;;;12.40;99.90;;;;;;5133780;27;20120;-79
2022/07/27 04:47:04;;;;;;;6.25;2.60;;;12.40;99.90;;;;;;5138123;27;20481;-79
2022/07/27 04:49:29;;;;;;;5.97;2.05;;;12.40;99.90;;;;;;5138038;27;20078;-79
2022/07/27 04:51:55;;;;;;;16.75;3.28;;;12.40;99.90;;;;;;5151427;27;20039;-79
2022/07/27 04:54:21;;;;;;;9.63;2.95;;;12.50;99.90;;;;;;5152395;27;20050;-79
2022/07/27 04:56:47;;;;;;;10.18;2.70;;;12.50;99.90;;;;;;5128192;27;20055;-79
2022/07/27 04:59:12;;;;;;;6.38;2.30;;;12.60;99.90;;;;;;5138424;27;20053;-79
2022/07/27 05:01:38;;;;;;;6.40;2.95;;;12.60;99.90;;;;;;5152956;27;20095;-79
2022/07/27 05:04:04;;;;;;;5.78;2.55;;;12.60;99.90;;;;;;5139868;27;20047;-79
2022/07/27 05:06:31;;;;;;;8.43;2.85;;;12.70;99.90;;;;;;5125071;27;20469;-79
2022/07/27 05:08:58;;;;;;;9.05;2.38;;;12.70;99.90;;;;;;5147143;27;20600;-79
2022/07/27 05:11:24;;;;;;;7.30;2.83;;;12.80;99.90;;;;;;5157640;27;20118;-79
2022/07/27 05:13:49;;;;;;;5.97;2.22;;;12.80;99.90;;;;;;5157826;27;20081;-79
2022/07/27 05:16:15;;;;;;;10.80;2.55;;;12.80;99.90;;;;;;5156935;27;20042;-79
2022/07/27 05:18:41;;;;;;;6.30;2.28;;;12.80;99.90;;;;;;5157568;27;20137;-79
2022/07/27 05:21:08;;;;;;;5.13;2.38;;;12.90;99.90;;;;;;5157007;27;20066;-79
2022/07/27 05:23:34;;;;;;;13.27;2.90;;;12.90;99.90;;;;;;5141768;27;20486;-79
2022/07/27 05:26:00;;;;;;;13.45;2.67;;;13.00;99.90;;;;;;5136171;27;20130;-79
2022/07/27 05:28:26;;;;;;;5.38;2.30;;;13.10;99.90;;;;;;5156477;27;20087;-80
2022/07/27 05:30:51;;;;;;;10.60;2.88;;;13.10;99.90;;;;;;5134209;27;20070;-79
2022/07/27 05:33:17;;;;;;;9.40;2.45;;;13.20;99.90;;;;;;5122402;27;20046;-80
2022/07/27 05:35:43;;;;;;;14.25;3.40;;;13.30;99.90;;;;;;5124280;27;20117;-79
2022/07/27 05:38:08;;;;;;;3.70;2.03;;;13.30;99.90;;;;;;5152857;27;20031;-80
2022/07/27 05:40:34;;;;;;;8.13;2.30;;;13.40;99.90;;;;;;5128443;27;20074;-79
2022/07/27 05:43:00;;;;;;;7.90;2.15;;;13.40;99.90;;;;;;5125302;27;20500;-80
2022/07/27 05:45:26;;;;;;;5.63;2.05;;;13.60;99.90;;;;;;5137387;27;20046;-80
2022/07/27 05:47:53;;;;;;;8.40;2.10;;;13.60;99.90;;;;;;5158073;27;20031;-80
2022/07/27 05:50:19;;;;;;;4.22;2.17;;;13.70;99.90;;;;;;5138074;27;20103;-80
2022/07/27 05:52:45;;;;;;;11.18;2.22;;;13.70;99.90;;;;;;5138469;27;20042;-80
2022/07/27 05:55:11;;;;;;;9.48;2.10;;;13.80;99.90;;;;;;5138158;27;20042;-80
2022/07/27 05:57:39;;;;;;;10.93;4.32;;;13.80;99.90;;;;;;5138213;27;20155;-80
2022/07/27 06:00:06;;;;;;;10.80;2.80;;;13.90;99.90;;;;;;5156625;27;20130;-80
2022/07/27 06:02:32;;;;;;;7.15;2.28;;;13.90;99.90;;;;;;5156300;27;20053;-80
2022/07/27 06:04:58;;;;;;;5.45;1.70;;;14.00;99.90;;;;;;5137449;27;20042;-80
2022/07/27 06:10:14;;;;;;;7.13;1.77;;;14.10;99.90;;;;;;5157358;27;20095;-81
2022/07/27 06:12:41;;;;;;;8.52;2.05;;;14.20;99.90;;;;;;5137249;27;20055;-80
2022/07/27 06:15:11;;;;;;;11.02;3.50;;;14.20;99.90;;;;;;5157460;27;20041;-80
2022/07/27 06:17:37;;;;;;;9.57;1.92;;;14.30;99.90;;;;;;5156041;27;20138;-80
2022/07/27 06:20:05;;;;;;;6.53;1.60;;;14.30;99.90;;;;;;5156949;27;20054;-80
2022/07/27 06:22:31;;;;;;;5.60;1.75;;;14.40;99.90;;;;;;5137913;27;20051;-80
2022/07/27 06:24:57;;;;;;;5.47;1.27;;;14.50;99.90;;;;;;5156313;27;20439;-80
2022/07/27 06:27:23;;;;;;;6.43;1.75;;;14.50;99.90;;;;;;5136575;27;20039;-80
2022/07/27 06:29:49;;;;;;;6.80;1.95;;;14.50;99.90;;;;;;5117764;27;20050;-81
2022/07/27 06:32:15;;;;;;;6.40;1.58;;;14.50;99.90;;;;;;5131449;27;20125;-80
2022/07/27 06:34:44;;;;;;;4.20;1.10;;;14.50;99.90;;;;;;5138123;27;20112;-80
2022/07/27 06:37:09;;;;;;;8.80;1.50;;;14.50;99.90;;;;;;5120281;27;20058;-80
2022/07/27 06:39:35;;;;;;;6.53;1.70;;;14.60;99.90;;;;;;5136561;27;20039;-80
2022/07/27 06:42:03;;;;;;;15.20;1.80;;;14.60;99.90;;;;;;5135818;27;20503;-80
2022/07/27 06:44:29;;;;;;;6.53;1.60;;;14.70;99.90;;;;;;5117842;27;20050;-80
2022/07/27 06:46:54;;;;;;;6.93;1.95;;;14.80;99.90;;;;;;5136922;27;20051;-80
2022/07/27 06:49:20;;;;;;;8.40;1.67;;;14.90;99.90;;;;;;5140161;27;20047;-81
2022/07/27 06:51:46;;;;;;;5.57;2.00;;;15.10;99.90;;;;;;5142733;27;20039;-81
2022/07/27 06:54:15;;;;;;;9.00;2.00;;;15.20;99.90;;;;;;5136324;27;20127;-81
2022/07/27 06:56:43;;;;;;;5.72;1.40;;;15.40;99.90;;;;;;5116391;27;20050;-81
2022/07/27 06:59:17;;;;;;;10.88;2.00;;;15.50;99.90;;;;;;5136959;27;20043;-81
2022/07/27 07:01:43;;;;;;;9.07;1.88;;;15.60;99.90;;;;;;5155454;27;20042;-81
2022/07/27 07:04:10;;;;;;;9.35;2.03;;;15.70;99.90;;;;;;5128506;27;20058;-81
2022/07/27 07:06:37;;;;;;;5.68;1.40;;;15.80;99.90;;;;;;5117387;27;20043;-81
2022/07/27 07:09:14;;;;;;;6.88;1.35;;;15.90;99.90;;;;;;5146123;27;20456;-81
2022/07/27 07:11:42;;;;;;;6.60;1.20;;;15.90;99.90;;;;;;5154582;27;20123;-81
2022/07/27 07:14:14;;;;;;;9.25;1.52;;;16.00;99.90;;;;;;5153919;27;20077;-80
2022/07/27 07:16:47;;;;;;;9.25;1.67;;;16.10;99.90;;;;;;5133659;27;20062;-81
2022/07/27 07:19:14;;;;;;;8.75;1.50;;;16.20;99.90;;;;;;5139753;27;20386;-81
2022/07/27 07:21:41;;;;;;;4.20;0.90;;;16.30;99.90;;;;;;5145033;27;20054;-81
2022/07/27 07:24:07;;;;;;;6.30;1.13;;;16.40;99.90;;;;;;5134356;27;20434;-80
2022/07/27 07:26:35;;;;;;;11.13;1.50;;;16.50;99.90;;;;;;5117392;27;20108;-82
2022/07/27 07:29:03;;;;;;;7.53;1.00;;;16.60;99.90;;;;;;5155764;27;20053;-80
2022/07/27 07:31:29;;;;;;;3.22;1.05;;;16.80;99.90;;;;;;5130494;27;20039;-79
2022/07/27 07:34:01;;;;;;;6.18;1.30;;;16.80;99.90;;;;;;5155020;27;20065;-82
2022/07/27 07:36:27;;;;;;;9.13;1.27;;;16.90;99.90;;;;;;5135498;27;20095;-82
2022/07/27 07:38:54;;;;;;;10.93;1.67;;;16.90;99.90;;;;;;5137465;27;20042;-82
2022/07/27 07:41:26;;;;;;;5.28;0.82;;;17.10;99.90;;;;;;5154512;27;20042;-82
2022/07/27 07:43:55;;;;;;;4.97;1.02;;;17.10;99.90;;;;;;5154802;27;20085;-83
2022/07/27 07:46:37;;;;;;;6.68;1.30;;;17.10;99.90;;;;;;5154488;27;20063;-83
2022/07/27 07:49:10;;;;;;;4.03;1.33;;;17.10;99.90;;;;;;5154491;27;20107;-82
2022/07/27 07:51:47;;;;;;;5.57;1.20;;;17.10;99.90;;;;;;5135004;27;20049;-83
2022/07/27 07:54:15;;;;;;;6.47;1.95;;;17.10;99.90;;;;;;5153833;27;20082;-82
2022/07/27 07:56:41;;;;;;;4.13;0.90;;;17.00;99.90;;;;;;5137188;27;20056;-83
2022/07/27 07:59:16;;;;;;;4.55;1.38;;;16.70;99.90;;;;;;5135995;27;20031;-84
2022/07/27 08:01:48;;;;;;;4.13;1.10;;;16.40;99.90;;;;;;5136602;27;20145;-81
2022/07/27 08:04:23;;;;;;;3.28;0.98;;;16.10;99.90;;;;;;5150452;27;20122;-82
2022/07/27 08:06:55;;;;;;;5.97;1.13;;;15.80;99.90;;;;;;5147471;27;20046;-84
2022/07/27 08:09:33;;;;;;;5.20;1.25;;;15.60;99.90;;;;;;5155132;27;20070;-82
2022/07/27 08:11:59;;;;;;;4.75;0.80;;;15.50;99.90;;;;;;5154548;27;20431;-82
2022/07/27 08:14:28;;;;;;;2.47;1.00;;;15.50;99.90;;;;;;5136531;27;20039;-82
2022/07/27 08:16:57;;;;;;;5.05;1.20;;;15.40;99.90;;;;;;5132867;28;20047;-83
2022/07/27 08:19:23;;;;;;;4.78;1.50;;;15.40;99.90;;;;;;5131193;28;20047;-84
2022/07/27 08:21:53;;;;;;;7.78;1.80;;;15.60;99.90;;;;;;5134395;27;20111;-82
2022/07/27 08:24:19;;;;;;;7.75;1.65;;;15.80;99.90;;;;;;5136668;27;20095;-81
2022/07/27 08:27:00;;;;;;;;;;;;;;;;;;;;;
2022/07/27 08:29:29;;;;;;;3.72;0.80;;;16.00;99.90;;;;;;5138743;27;20062;-80
2022/07/27 08:32:00;;;;;;;4.30;1.17;;;16.10;99.90;;;;;;5138543;27;20038;-82
2022/07/27 08:34:32;;;;;;;6.38;1.13;;;16.20;99.90;;;;;;5137882;27;20051;-82
2022/07/27 08:36:58;;;;;;;4.05;1.20;;;16.30;99.90;;;;;;5137194;27;20114;-81
2022/07/27 08:39:26;;;;;;;6.10;1.98;;;16.40;99.90;;;;;;5138298;27;20047;-81
2022/07/27 08:41:57;;;;;;;3.42;0.80;;;16.50;99.90;;;;;;5137509;27;20138;-80
2022/07/27 08:44:28;;;;;;;4.88;1.17;;;16.60;99.90;;;;;;5137394;27;20078;-81
2022/07/27 08:46:59;;;;;;;4.88;1.10;;;16.60;99.90;;;;;;5137757;27;20065;-81
2022/07/27 08:49:33;;;;;;;4.03;1.10;;;16.70;99.90;;;;;;5138237;27;20096;-86
2022/07/27 08:52:01;;;;;;;4.78;1.00;;;16.70;99.90;;;;;;5119020;27;20049;-83
2022/07/27 08:54:34;;;;;;;4.40;1.10;;;16.80;99.90;;;;;;5137433;27;20477;-83
2022/07/27 08:57:10;;;;;;;4.85;0.90;;;16.70;99.90;;;;;;5137155;27;20065;-83
2022/07/27 08:59:39;;;;;;;10.55;1.15;;;16.70;99.90;;;;;;5119697;27;20035;-83
2022/07/27 09:02:13;;;;;;;3.05;0.70;;;16.70;99.90;;;;;;5119211;27;20393;-84
2022/07/27 09:04:40;;;;;;;3.53;0.80;;;16.70;99.90;;;;;;5138259;27;20038;-83
2022/07/27 09:07:32;;;;;;;2.45;0.55;;;16.70;99.90;;;;;;5121616;27;20077;-84
2022/07/27 09:10:10;;;;;;;4.57;0.88;;;16.80;99.90;;;;;;5128482;27;20457;-84
2022/07/27 09:12:36;;;;;;;6.32;0.90;;;16.80;99.90;;;;;;5119507;27;20050;-84
2022/07/27 09:15:16;;;;;;;4.75;1.17;;;16.80;99.90;;;;;;5117530;27;20447;-83
2022/07/27 09:17:43;;;;;;;6.85;0.77;;;16.80;99.90;;;;;;5136257;27;20055;-84
2022/07/27 09:20:29;;;;;;;4.65;1.00;;;16.80;99.90;;;;;;5119182;27;20439;-83
2022/07/27 09:22:56;;;;;;;2.75;0.82;;;16.90;99.90;;;;;;5116796;28;20435;-83
2022/07/27 09:25:24;;;;;;;5.05;1.10;;;16.80;99.90;;;;;;5116954;28;20524;-85
2022/07/27 09:27:55;;;;;;;3.70;1.13;;;16.80;99.90;;;;;;5115508;28;20051;-83
2022/07/27 09:30:24;;;;;;;3.38;0.77;;;16.80;99.90;;;;;;5115970;28;20056;-83
2022/07/27 09:33:05;;;;;;;5.63;0.82;;;16.80;99.90;;;;;;5115756;28;20048;-84
2022/07/27 09:35:33;;;;;;;12.07;1.75;;;16.90;99.90;;;;;;5114775;28;20051;-82
2022/07/27 09:38:22;;;;;;;2.72;1.20;;;17.00;99.90;;;;;;5114888;28;20051;-82
2022/07/27 09:41:06;;;;;;;4.07;1.10;;;17.10;99.90;;;;;;5116764;28;20052;-84
2022/07/27 09:43:55;;;;;;;4.10;0.90;;;17.30;99.90;;;;;;5116041;28;20054;-84
2022/07/27 09:46:30;;;;;;;4.25;1.20;;;17.30;99.90;;;;;;5115505;28;20490;-82
2022/07/27 09:48:56;;;;;;;10.85;1.38;;;17.40;99.90;;;;;;5115536;28;20044;-82
2022/07/27 09:51:31;;;;;;;3.05;1.05;;;17.50;99.90;;;;;;5114581;28;20044;-82
2022/07/27 09:54:05;;;;;;;8.27;1.40;;;17.50;99.90;;;;;;5115551;28;20059;-84
2022/07/27 09:56:32;;;;;;;5.80;1.00;;;17.50;99.90;;;;;;5115048;28;20047;-83
2022/07/27 09:59:05;;;;;;;6.00;1.05;;;17.50;99.90;;;;;;5114470;28;20091;-85
2022/07/27 10:01:37;;;;;;;6.50;1.10;;;17.40;99.90;;;;;;5116495;28;20115;-82
2022/07/27 10:04:11;;;;;;;5.40;1.55;;;17.30;99.90;;;;;;5115765;28;20032;-82
2022/07/27 10:06:41;;;;;;;4.80;1.60;;;17.30;99.90;;;;;;5115014;28;20073;-82
2022/07/27 10:09:10;;;;;;;6.25;1.13;;;17.20;99.90;;;;;;5115066;28;20122;-82
2022/07/27 10:11:41;;;;;;;7.22;1.55;;;17.10;99.90;;;;;;5114361;28;20051;-83
2022/07/27 10:14:10;;;;;;;5.13;0.80;;;17.20;99.90;;;;;;5116274;28;20066;-82
2022/07/27 10:16:40;;;;;;;4.00;0.85;;;17.20;99.90;;;;;;5117754;27;20040;-82
2022/07/27 10:19:44;;;;;;;4.55;1.00;;;17.20;99.90;;;;;;5156643;27;20397;-83
2022/07/27 10:22:15;;;;;;;8.48;1.55;;;17.30;99.90;;;;;;5118564;27;20062;-83
2022/07/27 10:24:41;;;;;;;8.35;1.02;;;17.30;99.90;;;;;;5156948;27;20039;-84
2022/07/27 10:27:26;;;;;;;9.32;1.17;;;17.50;99.90;;;;;;5154204;27;20169;-81
2022/07/27 10:29:54;;;;;;;3.60;1.10;;;17.70;99.90;;;;;;5139409;27;20043;-83
2022/07/27 10:32:24;;;;;;;5.93;1.08;;;17.90;99.90;;;;;;5128875;27;20075;-83
2022/07/27 10:34:50;;;;;;;2.95;1.05;;;18.20;99.90;;;;;;5157153;27;20052;-81
2022/07/27 10:37:25;;;;;;;4.13;0.70;;;18.40;99.90;;;;;;5147682;27;20390;-81
2022/07/27 10:42:39;;;;;;;4.13;1.02;;;18.40;99.90;;;;;;5136080;27;20447;-86
2022/07/27 10:45:07;;;;;;;3.20;0.95;;;18.30;99.90;;;;;;5157074;27;20056;-80
2022/07/27 10:47:38;;;;;;;3.30;0.70;;;18.20;99.60;;;;;;5154632;27;20430;-81
2022/07/27 10:50:16;;;;;;;2.40;0.73;;;18.10;99.40;;;;;;5126298;27;20113;-82
2022/07/27 10:52:48;;;;;;;6.20;0.80;;;18.00;99.50;;;;;;5134391;27;20042;-82
2022/07/27 10:55:29;;;;;;;2.50;1.02;;;18.00;99.90;;;;;;5117359;27;20568;-82
2022/07/27 10:58:13;;;;;;;7.15;1.20;;;17.90;99.00;;;;;;5120083;27;20047;-83
2022/07/27 11:00:48;;;;;;;3.30;0.90;;;17.90;99.10;;;;;;5119996;27;20507;-83
2022/07/27 11:03:26;;;;;;;3.83;0.80;;;17.90;99.10;;;;;;5145940;27;20046;-85
2022/07/27 11:06:11;;;;;;;6.25;1.70;;;17.90;98.30;;;;;;5122678;27;20378;-83
2022/07/27 11:08:38;;;;;;;;;;;17.90;96.40;;;;;;5137976;27;20047;-83
2022/07/27 11:11:07;;;;;;;2.25;0.60;;;17.90;98.00;;;;;;5134363;27;19962;-82
2022/07/27 11:13:34;;;;;;;3.75;0.60;;;17.90;97.30;;;;;;5156267;27;20485;-84
2022/07/27 11:16:08;;;;;;;5.05;0.80;;;18.00;98.20;;;;;;5136808;27;20042;-84
2022/07/27 11:18:36;;;;;;;2.50;0.73;;;18.10;98.20;;;;;;5156099;27;20054;-85
2022/07/27 11:21:23;;;;;;;6.35;1.10;;;18.10;98.60;;;;;;5120382;27;20043;-84
2022/07/27 11:23:55;;;;;;;6.68;1.33;;;18.20;97.80;;;;;;5156100;27;20042;-83
2022/07/27 11:26:23;;;;;;;1.58;0.50;;;18.30;98.10;;;;;;5155970;27;20050;-83
2022/07/27 11:28:49;;;;;;;3.95;1.02;;;18.40;99.30;;;;;;5154923;27;20512;-84
2022/07/27 11:31:16;;;;;;;6.18;0.75;;;18.50;99.20;;;;;;5137463;27;20051;-84
2022/07/27 11:33:53;;;;;;;1.98;0.70;;;18.60;99.90;;;;;;5155835;27;20042;-81
2022/07/27 11:36:20;;;;;;;2.95;0.60;;;18.70;98.10;;;;;;5136737;27;20042;-83
2022/07/27 11:38:51;;;;;;;2.72;0.50;;;18.90;98.60;;;;;;5137315;27;20176;-82
2022/07/27 11:41:28;;;;;;;4.63;0.70;;;19.00;97.90;;;;;;5155761;27;20046;-84
2022/07/27 11:44:01;;;;;;;1.52;0.40;;;19.00;97.20;;;;;;5154942;27;20441;-82
2022/07/27 11:46:29;;;;;;;4.38;0.60;;;18.90;94.80;;;;;;5137066;27;20481;-83
2022/07/27 11:49:06;;;;;;;1.60;0.60;;;18.90;94.70;;;;;;5155713;27;20046;-84
2022/07/27 11:51:53;;;;;;;2.75;0.77;;;18.80;93.50;;;;;;5136294;27;20075;-85
2022/07/27 11:54:22;;;;;;;1.58;0.60;;;18.80;95.10;;;;;;5136544;27;20047;-84
2022/07/27 11:56:51;;;;;;;0.57;0.30;;;18.90;94.80;;;;;;5136238;27;20098;-80
2022/07/27 11:59:20;;;;;;;2.30;0.57;;;18.90;93.70;;;;;;5136559;27;20046;-83
2022/07/27 12:01:55;;;;;;;3.90;0.70;;;19.00;94.60;;;;;;5137059;27;20473;-84
2022/07/27 12:04:24;;;;;;;7.70;1.30;;;19.30;95.70;;;;;;5154747;27;20077;-84
2022/07/27 12:07:02;;;;;;;5.78;0.63;;;19.40;94.30;;;;;;5137292;27;20117;-84
2022/07/27 12:09:29;;;;;;;2.03;0.60;;;19.50;95.30;;;;;;5136801;27;20050;-84
2022/07/27 12:12:24;;;;;;;2.33;0.40;;;19.60;93.90;;;;;;5135905;27;20134;-88
2022/07/27 12:14:56;;;;;;;2.72;0.55;;;19.60;93.60;;;;;;5152598;27;20050;-86
2022/07/27 12:17:35;;;;;;;4.28;0.47;;;19.60;93.70;;;;;;5154949;27;20051;-84
2022/07/27 12:20:14;;;;;;;4.05;0.60;;;19.40;92.80;;;;;;5154486;27;20156;-84
2022/07/27 12:22:44;;;;;;;4.88;0.50;;;19.40;94.30;;;;;;5136740;27;20078;-83
2022/07/27 12:25:28;;;;;;;4.35;0.80;;;19.30;95.40;;;;;;5154510;27;20088;-82
2022/07/27 12:27:58;;;;;;;3.80;0.98;;;19.40;95.90;;;;;;5137082;27;20223;-82
2022/07/27 12:30:32;;;;;;;4.05;0.60;;;19.40;96.00;;;;;;5155174;27;20581;-83
2022/07/27 12:32:58;;;;;;;4.50;0.60;;;19.30;95.60;;;;;;5154192;27;20126;-83
2022/07/27 12:35:29;;;;;;;5.00;0.88;;;19.00;96.10;;;;;;5136658;27;20500;-82
2022/07/27 12:38:02;;;;;;;3.83;0.68;;;18.80;96.10;;;;;;5155290;27;20039;-81
2022/07/27 12:40:29;;;;;;;4.88;1.00;;;18.60;96.90;;;;;;5154138;27;20046;-83
2022/07/27 12:43:00;;;;;;;1.30;0.47;;;18.40;97.70;;;;;;5136541;27;20421;-82
2022/07/27 12:45:36;;;;;;;5.40;0.70;;;18.40;97.20;;;;;;5155219;27;20193;-84
2022/07/27 12:48:12;;;;;;;2.10;0.40;;;18.30;96.20;;;;;;5154263;27;20036;-82
2022/07/27 12:50:40;;;;;;;4.20;0.95;;;18.20;96.00;;;;;;5136625;27;20057;-84
2022/07/27 12:53:07;;;;;;;3.05;0.55;;;18.20;96.20;;;;;;5154058;27;20031;-81
2022/07/27 12:55:33;;;;;;;1.92;0.55;;;18.20;96.60;;;;;;5136615;27;20385;-83
2022/07/27 12:57:59;;;;;;;3.95;0.65;;;18.30;96.80;;;;;;5155118;27;20382;-83
2022/07/27 13:00:29;;;;;;;4.65;0.90;;;18.30;97.70;;;;;;5135489;27;20054;-83
2022/07/27 13:02:59;;;;;;;9.07;1.70;;;18.40;97.70;;;;;;5154963;27;20047;-85
2022/07/27 13:05:25;;;;;;;3.38;0.70;;;18.50;97.70;;;;;;5136391;27;20125;-84